sensor_id;sensor_type;location;lat;lon;timestamp;temperature;humidity
21035;DHT22;10676;50.848;3.272;2023-04-21T00:00:33;5.90;99.90
21035;DHT22;10676;50.848;3.272;2023-04-21T00:02:59;5.90;99.90
21035;DHT22;10676;50.848;3.272;2023-04-21T00:05:25;5.80;99.90
21035;DHT22;10676;50.848;3.272;2023-04-21T00:07:51;5.80;99.90
21035;DHT22;10676;50.848;3.272;2023-04-21T00:10:17;5.80;99.90
21035;DHT22;10676;50.848;3.272;2023-04-21T00:12:42;5.80;99.90
21035;DHT22;10676;50.848;3.272;2023-04-21T00:15:08;5.80;99.90
21035;DHT22;10676;50.848;3.272;2023-04-21T00:17:34;5.80;99.90
21035;DHT22;10676;50.848;3.272;2023-04-21T00:20:00;5.90;99.90
21035;DHT22;10676;50.848;3.272;2023-04-21T00:22:25;5.80;99.90
21035;DHT22;10676;50.848;3.272;2023-04-21T00:24:51;5.80;99.90
21035;DHT22;10676;50.848;3.272;2023-04-21T00:27:17;5.70;99.90
21035;DHT22;10676;50.848;3.272;2023-04-21T00:29:42;5.60;99.90
21035;DHT22;10676;50.848;3.272;2023-04-21T00:32:08;5.50;99.90
21035;DHT22;10676;50.848;3.272;2023-04-21T00:34:34;5.40;99.90
21035;DHT22;10676;50.848;3.272;2023-04-21T00:37:00;5.40;99.90
21035;DHT22;10676;50.848;3.272;2023-04-21T00:39:26;5.40;99.90
21035;DHT22;10676;50.848;3.272;2023-04-21T00:41:51;5.40;99.90
21035;DHT22;10676;50.848;3.272;2023-04-21T00:44:17;5.40;99.90
21035;DHT22;10676;50.848;3.272;2023-04-21T00:46:43;5.30;99.90
21035;DHT22;10676;50.848;3.272;2023-04-21T00:49:09;5.30;99.90
21035;DHT22;10676;50.848;3.272;2023-04-21T00:51:35;5.40;99.90
21035;DHT22;10676;50.848;3.272;2023-04-21T00:54:06;5.40;99.90
21035;DHT22;10676;50.848;3.272;2023-04-21T00:56:34;5.40;99.90
21035;DHT22;10676;50.848;3.272;2023-04-21T00:59:00;5.40;99.90
21035;DHT22;10676;50.848;3.272;2023-04-21T01:01:30;5.40;99.90
21035;DHT22;10676;50.848;3.272;2023-04-21T01:03:59;5.40;99.90
21035;DHT22;10676;50.848;3.272;2023-04-21T01:06:30;5.40;99.90
21035;DHT22;10676;50.848;3.272;2023-04-21T01:08:57;5.40;99.90
21035;DHT22;10676;50.848;3.272;2023-04-21T01:11:23;5.40;99.90
21035;DHT22;10676;50.848;3.272;2023-04-21T01:13:51;5.40;99.90
21035;DHT22;10676;50.848;3.272;2023-04-21T01:16:18;5.50;99.90
21035;DHT22;10676;50.848;3.272;2023-04-21T01:18:44;5.50;99.90
21035;DHT22;10676;50.848;3.272;2023-04-21T01:21:10;5.50;99.90
21035;DHT22;10676;50.848;3.272;2023-04-21T01:23:36;5.50;99.90
21035;DHT22;10676;50.848;3.272;2023-04-21T01:26:02;5.50;99.90
21035;DHT22;10676;50.848;3.272;2023-04-21T01:28:27;5.60;99.90
21035;DHT22;10676;50.848;3.272;2023-04-21T01:30:53;5.60;99.90
21035;DHT22;10676;50.848;3.272;2023-04-21T01:33:20;5.60;99.90
21035;DHT22;10676;50.848;3.272;2023-04-21T01:35:45;5.70;99.90
21035;DHT22;10676;50.848;3.272;2023-04-21T01:38:11;5.80;99.90
21035;DHT22;10676;50.848;3.272;2023-04-21T01:40:38;5.80;99.90
21035;DHT22;10676;50.848;3.272;2023-04-21T01:43:03;6.00;99.90
21035;DHT22;10676;50.848;3.272;2023-04-21T01:45:30;6.00;99.90
21035;DHT22;10676;50.848;3.272;2023-04-21T01:47:56;6.10;99.90
21035;DHT22;10676;50.848;3.272;2023-04-21T01:50:22;6.20;99.90
21035;DHT22;10676;50.848;3.272;2023-04-21T01:52:48;6.20;99.90
21035;DHT22;10676;50.848;3.272;2023-04-21T01:55:13;6.30;99.90
21035;DHT22;10676;50.848;3.272;2023-04-21T01:57:39;6.30;99.90
21035;DHT22;10676;50.848;3.272;2023-04-21T02:00:06;6.40;99.90
21035;DHT22;10676;50.848;3.272;2023-04-21T02:02:31;6.50;99.90
21035;DHT22;10676;50.848;3.272;2023-04-21T02:04:57;6.50;99.90
21035;DHT22;10676;50.848;3.272;2023-04-21T02:07:23;6.60;99.90
21035;DHT22;10676;50.848;3.272;2023-04-21T02:09:51;6.60;99.90
21035;DHT22;10676;50.848;3.272;2023-04-21T02:12:17;6.70;99.90
21035;DHT22;10676;50.848;3.272;2023-04-21T02:14:42;6.80;99.90
21035;DHT22;10676;50.848;3.272;2023-04-21T02:17:08;6.80;99.90
21035;DHT22;10676;50.848;3.272;2023-04-21T02:19:34;6.90;99.90
21035;DHT22;10676;50.848;3.272;2023-04-21T02:21:59;7.00;99.90
21035;DHT22;10676;50.848;3.272;2023-04-21T02:24:25;7.00;99.90
21035;DHT22;10676;50.848;3.272;2023-04-21T02:26:51;7.10;99.90
21035;DHT22;10676;50.848;3.272;2023-04-21T02:29:17;7.10;99.90
21035;DHT22;10676;50.848;3.272;2023-04-21T02:31:42;7.20;99.90
21035;DHT22;10676;50.848;3.272;2023-04-21T02:34:08;7.30;99.90
21035;DHT22;10676;50.848;3.272;2023-04-21T02:36:33;7.30;99.90
21035;DHT22;10676;50.848;3.272;2023-04-21T02:38:59;7.30;99.90
21035;DHT22;10676;50.848;3.272;2023-04-21T02:41:25;7.30;99.90
21035;DHT22;10676;50.848;3.272;2023-04-21T02:43:50;7.40;99.90
21035;DHT22;10676;50.848;3.272;2023-04-21T02:46:16;7.40;99.90
21035;DHT22;10676;50.848;3.272;2023-04-21T02:48:42;7.40;99.90
21035;DHT22;10676;50.848;3.272;2023-04-21T02:51:14;7.40;99.90
21035;DHT22;10676;50.848;3.272;2023-04-21T02:53:40;7.40;99.90
21035;DHT22;10676;50.848;3.272;2023-04-21T02:56:07;7.40;99.90
21035;DHT22;10676;50.848;3.272;2023-04-21T02:58:36;7.40;99.90
21035;DHT22;10676;50.848;3.272;2023-04-21T03:01:03;7.30;99.90
21035;DHT22;10676;50.848;3.272;2023-04-21T03:03:29;7.40;99.90
21035;DHT22;10676;50.848;3.272;2023-04-21T03:06:00;7.40;99.90
21035;DHT22;10676;50.848;3.272;2023-04-21T03:08:26;7.40;99.90
21035;DHT22;10676;50.848;3.272;2023-04-21T03:10:52;7.40;99.90
21035;DHT22;10676;50.848;3.272;2023-04-21T03:13:18;7.40;99.90
21035;DHT22;10676;50.848;3.272;2023-04-21T03:15:43;7.40;99.90
21035;DHT22;10676;50.848;3.272;2023-04-21T03:18:09;7.40;99.90
21035;DHT22;10676;50.848;3.272;2023-04-21T03:20:35;7.40;99.90
21035;DHT22;10676;50.848;3.272;2023-04-21T03:23:01;7.30;99.90
21035;DHT22;10676;50.848;3.272;2023-04-21T03:25:27;7.30;99.90
21035;DHT22;10676;50.848;3.272;2023-04-21T03:27:53;7.20;99.90
21035;DHT22;10676;50.848;3.272;2023-04-21T03:30:19;7.20;99.90
21035;DHT22;10676;50.848;3.272;2023-04-21T03:32:45;7.10;99.90
21035;DHT22;10676;50.848;3.272;2023-04-21T03:35:11;7.10;99.90
21035;DHT22;10676;50.848;3.272;2023-04-21T03:37:37;7.10;99.90
21035;DHT22;10676;50.848;3.272;2023-04-21T03:40:03;7.10;99.90
21035;DHT22;10676;50.848;3.272;2023-04-21T03:42:32;7.10;99.90
21035;DHT22;10676;50.848;3.272;2023-04-21T03:45:05;7.10;99.90
21035;DHT22;10676;50.848;3.272;2023-04-21T03:47:31;7.10;99.90
21035;DHT22;10676;50.848;3.272;2023-04-21T03:49:56;7.10;99.90
21035;DHT22;10676;50.848;3.272;2023-04-21T03:52:22;7.20;99.90
21035;DHT22;10676;50.848;3.272;2023-04-21T03:54:48;7.20;99.90
21035;DHT22;10676;50.848;3.272;2023-04-21T03:57:14;7.20;99.90
21035;DHT22;10676;50.848;3.272;2023-04-21T03:59:40;7.20;99.90
21035;DHT22;10676;50.848;3.272;2023-04-21T04:02:06;7.20;99.90
21035;DHT22;10676;50.848;3.272;2023-04-21T04:04:31;7.30;99.90
21035;DHT22;10676;50.848;3.272;2023-04-21T04:06:57;7.30;99.90
21035;DHT22;10676;50.848;3.272;2023-04-21T04:09:23;7.30;99.90
21035;DHT22;10676;50.848;3.272;2023-04-21T04:11:49;7.30;99.90
21035;DHT22;10676;50.848;3.272;2023-04-21T04:14:15;7.30;99.90
21035;DHT22;10676;50.848;3.272;2023-04-21T04:16:40;7.30;99.90
21035;DHT22;10676;50.848;3.272;2023-04-21T04:19:07;7.30;99.90
21035;DHT22;10676;50.848;3.272;2023-04-21T04:21:33;7.30;99.90
21035;DHT22;10676;50.848;3.272;2023-04-21T04:23:59;7.30;99.90
21035;DHT22;10676;50.848;3.272;2023-04-21T04:26:27;7.30;99.90
21035;DHT22;10676;50.848;3.272;2023-04-21T04:28:54;7.30;99.90
21035;DHT22;10676;50.848;3.272;2023-04-21T04:31:21;7.30;99.90
21035;DHT22;10676;50.848;3.272;2023-04-21T04:33:46;7.40;99.90
21035;DHT22;10676;50.848;3.272;2023-04-21T04:36:12;7.30;99.90
21035;DHT22;10676;50.848;3.272;2023-04-21T04:38:38;7.30;99.90
21035;DHT22;10676;50.848;3.272;2023-04-21T04:41:04;7.40;99.90
21035;DHT22;10676;50.848;3.272;2023-04-21T04:43:30;7.40;99.90
21035;DHT22;10676;50.848;3.272;2023-04-21T04:46:02;7.40;99.90
21035;DHT22;10676;50.848;3.272;2023-04-21T04:48:29;7.40;99.90
21035;DHT22;10676;50.848;3.272;2023-04-21T04:50:54;7.40;99.90
21035;DHT22;10676;50.848;3.272;2023-04-21T04:53:20;7.50;99.90
21035;DHT22;10676;50.848;3.272;2023-04-21T04:55:46;7.50;99.90
21035;DHT22;10676;50.848;3.272;2023-04-21T04:58:15;7.50;99.90
21035;DHT22;10676;50.848;3.272;2023-04-21T05:00:43;7.50;99.90
21035;DHT22;10676;50.848;3.272;2023-04-21T05:03:09;7.60;99.90
21035;DHT22;10676;50.848;3.272;2023-04-21T05:05:35;7.50;99.90
21035;DHT22;10676;50.848;3.272;2023-04-21T05:08:00;7.50;99.90
21035;DHT22;10676;50.848;3.272;2023-04-21T05:10:26;7.60;99.90
21035;DHT22;10676;50.848;3.272;2023-04-21T05:12:52;7.60;99.90
21035;DHT22;10676;50.848;3.272;2023-04-21T05:15:18;7.70;99.90
21035;DHT22;10676;50.848;3.272;2023-04-21T05:17:43;7.90;99.90
21035;DHT22;10676;50.848;3.272;2023-04-21T05:20:09;8.00;99.90
21035;DHT22;10676;50.848;3.272;2023-04-21T05:22:38;8.20;99.90
21035;DHT22;10676;50.848;3.272;2023-04-21T05:25:05;8.30;99.90
21035;DHT22;10676;50.848;3.272;2023-04-21T05:27:31;8.40;99.90
21035;DHT22;10676;50.848;3.272;2023-04-21T05:29:56;8.40;99.90
21035;DHT22;10676;50.848;3.272;2023-04-21T05:32:22;8.50;99.90
21035;DHT22;10676;50.848;3.272;2023-04-21T05:34:48;8.50;99.90
21035;DHT22;10676;50.848;3.272;2023-04-21T05:37:13;8.60;99.90
21035;DHT22;10676;50.848;3.272;2023-04-21T05:39:39;8.60;99.90
21035;DHT22;10676;50.848;3.272;2023-04-21T05:42:05;8.60;99.90
21035;DHT22;10676;50.848;3.272;2023-04-21T05:44:31;8.60;99.90
21035;DHT22;10676;50.848;3.272;2023-04-21T05:46:56;8.60;99.90
21035;DHT22;10676;50.848;3.272;2023-04-21T05:49:22;8.60;99.90
21035;DHT22;10676;50.848;3.272;2023-04-21T05:51:47;8.60;99.90
21035;DHT22;10676;50.848;3.272;2023-04-21T05:54:13;8.60;99.90
21035;DHT22;10676;50.848;3.272;2023-04-21T05:56:39;8.60;99.90
21035;DHT22;10676;50.848;3.272;2023-04-21T05:59:05;8.60;99.90
21035;DHT22;10676;50.848;3.272;2023-04-21T06:01:31;8.60;99.90
21035;DHT22;10676;50.848;3.272;2023-04-21T06:03:57;8.60;99.90
21035;DHT22;10676;50.848;3.272;2023-04-21T06:06:25;8.60;99.90
21035;DHT22;10676;50.848;3.272;2023-04-21T06:08:52;8.60;99.90
21035;DHT22;10676;50.848;3.272;2023-04-21T06:11:17;8.60;99.90
21035;DHT22;10676;50.848;3.272;2023-04-21T06:13:43;8.60;99.90
21035;DHT22;10676;50.848;3.272;2023-04-21T06:16:09;8.60;99.90
21035;DHT22;10676;50.848;3.272;2023-04-21T06:18:35;8.60;99.90
21035;DHT22;10676;50.848;3.272;2023-04-21T06:21:00;8.70;99.90
21035;DHT22;10676;50.848;3.272;2023-04-21T06:23:26;8.70;99.90
21035;DHT22;10676;50.848;3.272;2023-04-21T06:26:02;8.70;99.90
21035;DHT22;10676;50.848;3.272;2023-04-21T06:28:32;8.70;99.90
21035;DHT22;10676;50.848;3.272;2023-04-21T06:30:59;8.80;99.90
21035;DHT22;10676;50.848;3.272;2023-04-21T06:33:25;8.80;99.90
21035;DHT22;10676;50.848;3.272;2023-04-21T06:35:52;8.90;99.90
21035;DHT22;10676;50.848;3.272;2023-04-21T06:38:17;8.90;99.90
21035;DHT22;10676;50.848;3.272;2023-04-21T06:40:43;9.00;99.90
21035;DHT22;10676;50.848;3.272;2023-04-21T06:43:09;9.10;99.90
21035;DHT22;10676;50.848;3.272;2023-04-21T06:45:34;9.20;99.90
21035;DHT22;10676;50.848;3.272;2023-04-21T06:48:00;9.30;99.90
21035;DHT22;10676;50.848;3.272;2023-04-21T06:50:26;9.40;99.90
21035;DHT22;10676;50.848;3.272;2023-04-21T06:52:51;9.40;99.90
21035;DHT22;10676;50.848;3.272;2023-04-21T06:55:17;9.40;99.90
21035;DHT22;10676;50.848;3.272;2023-04-21T06:57:43;9.40;99.90
21035;DHT22;10676;50.848;3.272;2023-04-21T07:00:09;9.50;99.90
21035;DHT22;10676;50.848;3.272;2023-04-21T07:02:36;9.60;99.90
21035;DHT22;10676;50.848;3.272;2023-04-21T07:05:01;9.90;99.90
21035;DHT22;10676;50.848;3.272;2023-04-21T07:07:27;10.10;99.90
21035;DHT22;10676;50.848;3.272;2023-04-21T07:09:52;10.40;99.90
21035;DHT22;10676;50.848;3.272;2023-04-21T07:12:18;10.50;99.90
21035;DHT22;10676;50.848;3.272;2023-04-21T07:14:44;10.70;99.90
21035;DHT22;10676;50.848;3.272;2023-04-21T07:17:09;11.00;99.90
21035;DHT22;10676;50.848;3.272;2023-04-21T07:19:35;11.40;99.90
21035;DHT22;10676;50.848;3.272;2023-04-21T07:22:01;12.10;99.90
21035;DHT22;10676;50.848;3.272;2023-04-21T07:24:27;12.70;99.90
21035;DHT22;10676;50.848;3.272;2023-04-21T07:26:52;13.30;99.90
21035;DHT22;10676;50.848;3.272;2023-04-21T07:29:18;13.80;99.90
21035;DHT22;10676;50.848;3.272;2023-04-21T07:31:43;14.10;99.90
21035;DHT22;10676;50.848;3.272;2023-04-21T07:34:11;14.50;99.90
21035;DHT22;10676;50.848;3.272;2023-04-21T07:36:37;14.80;99.90
21035;DHT22;10676;50.848;3.272;2023-04-21T07:39:02;15.00;99.90
21035;DHT22;10676;50.848;3.272;2023-04-21T07:41:28;15.60;99.90
21035;DHT22;10676;50.848;3.272;2023-04-21T07:44:00;16.50;99.90
21035;DHT22;10676;50.848;3.272;2023-04-21T07:46:29;17.20;99.90
21035;DHT22;10676;50.848;3.272;2023-04-21T07:48:57;17.80;99.90
21035;DHT22;10676;50.848;3.272;2023-04-21T07:51:23;18.00;99.90
21035;DHT22;10676;50.848;3.272;2023-04-21T07:53:49;17.60;99.90
21035;DHT22;10676;50.848;3.272;2023-04-21T07:56:15;17.30;99.90
21035;DHT22;10676;50.848;3.272;2023-04-21T07:58:41;17.40;99.90
21035;DHT22;10676;50.848;3.272;2023-04-21T08:01:07;17.80;99.90
21035;DHT22;10676;50.848;3.272;2023-04-21T08:03:32;18.20;99.90
21035;DHT22;10676;50.848;3.272;2023-04-21T08:05:58;18.50;99.90
21035;DHT22;10676;50.848;3.272;2023-04-21T08:08:24;19.00;99.90
21035;DHT22;10676;50.848;3.272;2023-04-21T08:10:49;19.60;99.90
21035;DHT22;10676;50.848;3.272;2023-04-21T08:13:15;20.30;99.90
21035;DHT22;10676;50.848;3.272;2023-04-21T08:15:41;20.60;99.90
21035;DHT22;10676;50.848;3.272;2023-04-21T08:18:07;20.60;99.90
21035;DHT22;10676;50.848;3.272;2023-04-21T08:20:33;20.80;99.90
21035;DHT22;10676;50.848;3.272;2023-04-21T08:22:59;21.10;99.90
21035;DHT22;10676;50.848;3.272;2023-04-21T08:25:25;21.70;99.90
21035;DHT22;10676;50.848;3.272;2023-04-21T08:27:50;22.00;99.90
21035;DHT22;10676;50.848;3.272;2023-04-21T08:30:16;21.60;99.90
21035;DHT22;10676;50.848;3.272;2023-04-21T08:32:42;21.30;99.90
21035;DHT22;10676;50.848;3.272;2023-04-21T08:35:08;20.70;99.90
21035;DHT22;10676;50.848;3.272;2023-04-21T08:37:38;20.00;99.90
21035;DHT22;10676;50.848;3.272;2023-04-21T08:40:04;19.20;99.90
21035;DHT22;10676;50.848;3.272;2023-04-21T08:42:31;18.40;99.90
21035;DHT22;10676;50.848;3.272;2023-04-21T08:44:57;17.70;99.90
21035;DHT22;10676;50.848;3.272;2023-04-21T08:47:23;17.20;99.90
21035;DHT22;10676;50.848;3.272;2023-04-21T08:49:50;16.80;99.90
21035;DHT22;10676;50.848;3.272;2023-04-21T08:52:17;16.30;99.90
21035;DHT22;10676;50.848;3.272;2023-04-21T08:54:42;15.90;99.90
21035;DHT22;10676;50.848;3.272;2023-04-21T08:57:08;15.60;99.90
21035;DHT22;10676;50.848;3.272;2023-04-21T08:59:34;15.30;99.90
21035;DHT22;10676;50.848;3.272;2023-04-21T09:02:14;15.00;99.90
21035;DHT22;10676;50.848;3.272;2023-04-21T09:04:50;14.80;99.90
21035;DHT22;10676;50.848;3.272;2023-04-21T09:07:36;14.70;99.90
21035;DHT22;10676;50.848;3.272;2023-04-21T09:10:04;14.60;99.90
21035;DHT22;10676;50.848;3.272;2023-04-21T09:12:30;14.60;99.90
21035;DHT22;10676;50.848;3.272;2023-04-21T09:14:56;14.70;99.90
21035;DHT22;10676;50.848;3.272;2023-04-21T09:17:27;14.70;99.90
21035;DHT22;10676;50.848;3.272;2023-04-21T09:19:57;14.60;99.90
21035;DHT22;10676;50.848;3.272;2023-04-21T09:22:26;14.70;99.90
21035;DHT22;10676;50.848;3.272;2023-04-21T09:24:57;14.80;99.90
21035;DHT22;10676;50.848;3.272;2023-04-21T09:27:24;14.80;99.90
21035;DHT22;10676;50.848;3.272;2023-04-21T09:29:50;14.90;99.90
21035;DHT22;10676;50.848;3.272;2023-04-21T09:32:16;14.90;99.90
21035;DHT22;10676;50.848;3.272;2023-04-21T09:34:43;15.00;99.90
21035;DHT22;10676;50.848;3.272;2023-04-21T09:37:10;15.10;99.90
21035;DHT22;10676;50.848;3.272;2023-04-21T09:39:36;15.10;99.90
21035;DHT22;10676;50.848;3.272;2023-04-21T09:42:02;15.20;99.90
21035;DHT22;10676;50.848;3.272;2023-04-21T09:44:28;15.30;99.90
21035;DHT22;10676;50.848;3.272;2023-04-21T09:47:00;15.40;99.90
21035;DHT22;10676;50.848;3.272;2023-04-21T09:49:29;15.40;99.90
21035;DHT22;10676;50.848;3.272;2023-04-21T09:51:59;15.40;99.90
21035;DHT22;10676;50.848;3.272;2023-04-21T09:54:36;15.30;99.90
21035;DHT22;10676;50.848;3.272;2023-04-21T09:57:09;15.20;99.90
21035;DHT22;10676;50.848;3.272;2023-04-21T09:59:44;15.00;99.90
21035;DHT22;10676;50.848;3.272;2023-04-21T10:02:10;15.00;99.90
21035;DHT22;10676;50.848;3.272;2023-04-21T10:04:40;15.20;99.90
21035;DHT22;10676;50.848;3.272;2023-04-21T10:07:06;15.40;99.90
21035;DHT22;10676;50.848;3.272;2023-04-21T10:09:53;15.60;99.90
21035;DHT22;10676;50.848;3.272;2023-04-21T10:12:21;15.80;99.90
21035;DHT22;10676;50.848;3.272;2023-04-21T10:14:51;16.10;99.90
21035;DHT22;10676;50.848;3.272;2023-04-21T10:17:20;16.20;99.90
21035;DHT22;10676;50.848;3.272;2023-04-21T10:19:56;16.40;99.90
21035;DHT22;10676;50.848;3.272;2023-04-21T10:24:55;16.60;99.90
21035;DHT22;10676;50.848;3.272;2023-04-21T10:27:36;16.70;99.90
21035;DHT22;10676;50.848;3.272;2023-04-21T10:30:20;16.90;99.90
21035;DHT22;10676;50.848;3.272;2023-04-21T10:32:47;17.30;99.90
21035;DHT22;10676;50.848;3.272;2023-04-21T10:35:21;17.70;99.90
21035;DHT22;10676;50.848;3.272;2023-04-21T10:37:49;18.20;99.90
21035;DHT22;10676;50.848;3.272;2023-04-21T10:40:45;19.00;99.90
21035;DHT22;10676;50.848;3.272;2023-04-21T10:43:43;20.10;99.90
21035;DHT22;10676;50.848;3.272;2023-04-21T10:49:08;22.50;99.90
21035;DHT22;10676;50.848;3.272;2023-04-21T10:54:31;23.80;98.90
21035;DHT22;10676;50.848;3.272;2023-04-21T10:57:03;24.30;95.20
21035;DHT22;10676;50.848;3.272;2023-04-21T10:59:30;24.60;93.60
21035;DHT22;10676;50.848;3.272;2023-04-21T11:01:56;25.00;92.70
21035;DHT22;10676;50.848;3.272;2023-04-21T11:04:21;25.30;91.50
21035;DHT22;10676;50.848;3.272;2023-04-21T11:09:35;25.90;90.00
21035;DHT22;10676;50.848;3.272;2023-04-21T11:12:06;25.90;84.60
21035;DHT22;10676;50.848;3.272;2023-04-21T11:14:34;25.70;83.00
21035;DHT22;10676;50.848;3.272;2023-04-21T11:17:01;25.60;83.30
21035;DHT22;10676;50.848;3.272;2023-04-21T11:19:27;25.70;81.50
21035;DHT22;10676;50.848;3.272;2023-04-21T11:21:53;26.10;80.50
21035;DHT22;10676;50.848;3.272;2023-04-21T11:24:21;26.40;77.50
21035;DHT22;10676;50.848;3.272;2023-04-21T11:26:47;26.30;76.30
21035;DHT22;10676;50.848;3.272;2023-04-21T11:29:14;26.20;76.00
21035;DHT22;10676;50.848;3.272;2023-04-21T11:31:41;26.30;75.50
21035;DHT22;10676;50.848;3.272;2023-04-21T11:34:07;26.40;74.30
21035;DHT22;10676;50.848;3.272;2023-04-21T11:36:34;26.60;73.40
21035;DHT22;10676;50.848;3.272;2023-04-21T11:39:04;26.90;71.70
21035;DHT22;10676;50.848;3.272;2023-04-21T11:41:32;27.20;71.40
21035;DHT22;10676;50.848;3.272;2023-04-21T11:43:58;27.30;70.20
21035;DHT22;10676;50.848;3.272;2023-04-21T11:46:24;27.30;70.20
21035;DHT22;10676;50.848;3.272;2023-04-21T11:51:32;27.50;69.40
21035;DHT22;10676;50.848;3.272;2023-04-21T11:53:58;27.20;69.40
21035;DHT22;10676;50.848;3.272;2023-04-21T11:56:24;26.70;69.30
21035;DHT22;10676;50.848;3.272;2023-04-21T11:58:50;26.30;68.90
21035;DHT22;10676;50.848;3.272;2023-04-21T12:01:17;25.80;70.70
21035;DHT22;10676;50.848;3.272;2023-04-21T12:03:54;25.50;70.50
21035;DHT22;10676;50.848;3.272;2023-04-21T12:06:24;25.60;71.00
21035;DHT22;10676;50.848;3.272;2023-04-21T12:08:59;25.70;71.00
21035;DHT22;10676;50.848;3.272;2023-04-21T12:11:29;26.10;70.20
21035;DHT22;10676;50.848;3.272;2023-04-21T12:14:00;26.40;68.80
21035;DHT22;10676;50.848;3.272;2023-04-21T12:16:27;26.80;67.50
21035;DHT22;10676;50.848;3.272;2023-04-21T12:18:56;26.90;66.80
21035;DHT22;10676;50.848;3.272;2023-04-21T12:21:31;27.20;67.30
21035;DHT22;10676;50.848;3.272;2023-04-21T12:23:57;27.30;66.20
21035;DHT22;10676;50.848;3.272;2023-04-21T12:26:23;27.20;65.70
21035;DHT22;10676;50.848;3.272;2023-04-21T12:28:53;27.10;65.40
21035;DHT22;10676;50.848;3.272;2023-04-21T12:31:19;27.40;65.40
21035;DHT22;10676;50.848;3.272;2023-04-21T12:33:44;27.50;63.10
21035;DHT22;10676;50.848;3.272;2023-04-21T12:36:10;27.50;60.90
21035;DHT22;10676;50.848;3.272;2023-04-21T12:38:36;27.20;62.20
21035;DHT22;10676;50.848;3.272;2023-04-21T12:41:02;27.00;62.10
21035;DHT22;10676;50.848;3.272;2023-04-21T12:43:28;26.60;64.10
21035;DHT22;10676;50.848;3.272;2023-04-21T12:45:53;26.30;62.60
21035;DHT22;10676;50.848;3.272;2023-04-21T12:48:19;26.00;63.70
21035;DHT22;10676;50.848;3.272;2023-04-21T12:50:45;25.70;63.60
21035;DHT22;10676;50.848;3.272;2023-04-21T12:53:12;25.40;64.50
21035;DHT22;10676;50.848;3.272;2023-04-21T12:55:37;25.20;63.50
21035;DHT22;10676;50.848;3.272;2023-04-21T12:58:03;24.90;62.50
21035;DHT22;10676;50.848;3.272;2023-04-21T13:00:29;24.60;64.20
21035;DHT22;10676;50.848;3.272;2023-04-21T13:02:55;24.30;64.60
21035;DHT22;10676;50.848;3.272;2023-04-21T13:05:20;24.00;65.50
21035;DHT22;10676;50.848;3.272;2023-04-21T13:07:46;23.70;67.00
21035;DHT22;10676;50.848;3.272;2023-04-21T13:10:12;23.80;67.60
21035;DHT22;10676;50.848;3.272;2023-04-21T13:12:37;23.90;65.80
21035;DHT22;10676;50.848;3.272;2023-04-21T13:15:03;24.00;64.90
21035;DHT22;10676;50.848;3.272;2023-04-21T13:17:29;24.00;65.00
21035;DHT22;10676;50.848;3.272;2023-04-21T13:19:55;24.00;65.40
21035;DHT22;10676;50.848;3.272;2023-04-21T13:22:21;24.00;64.80
21035;DHT22;10676;50.848;3.272;2023-04-21T13:24:47;23.90;64.90
21035;DHT22;10676;50.848;3.272;2023-04-21T13:27:12;23.80;65.50
21035;DHT22;10676;50.848;3.272;2023-04-21T13:29:38;23.60;64.50
21035;DHT22;10676;50.848;3.272;2023-04-21T13:32:05;23.40;65.30
21035;DHT22;10676;50.848;3.272;2023-04-21T13:34:32;23.30;66.10
21035;DHT22;10676;50.848;3.272;2023-04-21T13:36:59;23.40;66.70
21035;DHT22;10676;50.848;3.272;2023-04-21T13:39:25;23.60;66.60
21035;DHT22;10676;50.848;3.272;2023-04-21T13:41:51;24.00;65.40
21035;DHT22;10676;50.848;3.272;2023-04-21T13:44:17;24.30;65.60
21035;DHT22;10676;50.848;3.272;2023-04-21T13:46:43;24.50;62.90
21035;DHT22;10676;50.848;3.272;2023-04-21T13:49:09;24.80;62.00
21035;DHT22;10676;50.848;3.272;2023-04-21T13:51:35;24.80;61.10
21035;DHT22;10676;50.848;3.272;2023-04-21T13:54:01;24.70;61.70
21035;DHT22;10676;50.848;3.272;2023-04-21T13:56:27;24.70;62.10
21035;DHT22;10676;50.848;3.272;2023-04-21T13:58:52;24.60;62.40
21035;DHT22;10676;50.848;3.272;2023-04-21T14:01:19;24.40;62.00
21035;DHT22;10676;50.848;3.272;2023-04-21T14:03:45;24.10;62.90
21035;DHT22;10676;50.848;3.272;2023-04-21T14:06:11;23.80;63.50
21035;DHT22;10676;50.848;3.272;2023-04-21T14:08:36;23.50;64.00
21035;DHT22;10676;50.848;3.272;2023-04-21T14:11:03;23.30;64.40
21035;DHT22;10676;50.848;3.272;2023-04-21T14:13:28;23.10;64.50
21035;DHT22;10676;50.848;3.272;2023-04-21T14:15:55;22.80;64.60
21035;DHT22;10676;50.848;3.272;2023-04-21T14:18:21;22.70;65.10
21035;DHT22;10676;50.848;3.272;2023-04-21T14:20:47;22.70;66.10
21035;DHT22;10676;50.848;3.272;2023-04-21T14:23:13;22.90;66.00
21035;DHT22;10676;50.848;3.272;2023-04-21T14:25:39;23.30;66.00
21035;DHT22;10676;50.848;3.272;2023-04-21T14:28:05;23.80;64.00
21035;DHT22;10676;50.848;3.272;2023-04-21T14:30:35;24.20;62.70
21035;DHT22;10676;50.848;3.272;2023-04-21T14:33:01;24.30;62.10
21035;DHT22;10676;50.848;3.272;2023-04-21T14:35:27;24.20;61.60
21035;DHT22;10676;50.848;3.272;2023-04-21T14:37:53;24.00;61.20
21035;DHT22;10676;50.848;3.272;2023-04-21T14:40:19;23.60;61.70
21035;DHT22;10676;50.848;3.272;2023-04-21T14:42:44;23.10;62.80
21035;DHT22;10676;50.848;3.272;2023-04-21T14:45:11;22.70;62.50
21035;DHT22;10676;50.848;3.272;2023-04-21T14:47:37;22.30;63.70
21035;DHT22;10676;50.848;3.272;2023-04-21T14:50:04;22.00;63.90
21035;DHT22;10676;50.848;3.272;2023-04-21T14:52:30;21.80;64.50
21035;DHT22;10676;50.848;3.272;2023-04-21T14:54:56;21.60;65.80
21035;DHT22;10676;50.848;3.272;2023-04-21T14:57:22;21.40;69.20
21035;DHT22;10676;50.848;3.272;2023-04-21T14:59:51;21.00;73.30
21035;DHT22;10676;50.848;3.272;2023-04-21T15:02:18;20.40;76.40
21035;DHT22;10676;50.848;3.272;2023-04-21T15:04:44;19.80;76.20
21035;DHT22;10676;50.848;3.272;2023-04-21T15:07:10;19.30;77.60
21035;DHT22;10676;50.848;3.272;2023-04-21T15:09:36;19.00;77.50
21035;DHT22;10676;50.848;3.272;2023-04-21T15:12:04;18.70;83.50
21035;DHT22;10676;50.848;3.272;2023-04-21T15:14:30;18.30;86.50
21035;DHT22;10676;50.848;3.272;2023-04-21T15:16:55;17.80;88.70
21035;DHT22;10676;50.848;3.272;2023-04-21T15:19:21;17.20;90.40
21035;DHT22;10676;50.848;3.272;2023-04-21T15:21:47;16.40;91.60
21035;DHT22;10676;50.848;3.272;2023-04-21T15:24:12;15.70;92.40
21035;DHT22;10676;50.848;3.272;2023-04-21T15:26:38;15.00;93.80
21035;DHT22;10676;50.848;3.272;2023-04-21T15:29:04;14.40;94.90
21035;DHT22;10676;50.848;3.272;2023-04-21T15:31:30;13.90;96.10
21035;DHT22;10676;50.848;3.272;2023-04-21T15:33:56;13.40;97.60
21035;DHT22;10676;50.848;3.272;2023-04-21T15:36:21;13.00;99.40
21035;DHT22;10676;50.848;3.272;2023-04-21T15:38:47;12.60;99.90
21035;DHT22;10676;50.848;3.272;2023-04-21T15:41:13;12.30;99.90
21035;DHT22;10676;50.848;3.272;2023-04-21T15:43:40;12.00;99.90
21035;DHT22;10676;50.848;3.272;2023-04-21T15:46:06;11.80;99.90
21035;DHT22;10676;50.848;3.272;2023-04-21T15:48:38;11.60;99.90